Time;durP1;ratioP1;P1;durP2;ratioP2;P2;SDS_P1;SDS_P2;PMS_P1;PMS_P2;Temp;Humidity;BMP_temperature;BMP_pressure;BME280_temperature;BME280_humidity;BME280_pressure;Samples;Min_cycle;Max_cycle;Signal;HPM_P1;HPM_P2
2023/01/10 05:01:41;;;;;;;4.88;3.00;;;6.40;99.90;;;5.22;100.00;100844.91;5380145;23;20077;-80
2023/01/10 05:04:08;;;;;;;5.20;2.05;;;7.60;99.90;;;5.33;100.00;100861.50;4961029;28;20677;-81
2023/01/10 05:06:38;;;;;;;12.98;2.38;;;6.30;99.90;;;5.25;100.00;100864.06;4972627;28;20520;-80
2023/01/10 05:09:08;;;;;;;5.30;2.38;;;7.50;99.90;;;5.28;100.00;100859.72;4974896;28;20030;-80
2023/01/10 05:11:38;;;;;;;5.53;2.22;;;6.40;99.90;;;5.29;100.00;100867.56;4955729;28;20648;-81
2023/01/10 05:14:07;;;;;;;14.90;3.78;;;6.30;99.90;;;5.27;100.00;100864.09;4969517;28;20113;-82
2023/01/10 05:16:35;;;;;;;8.63;2.55;;;6.40;99.90;;;5.24;100.00;100864.94;4952351;28;20531;-82
2023/01/10 05:19:03;;;;;;;6.80;2.72;;;7.00;99.90;;;5.30;100.00;100866.72;4937446;29;20110;-82
2023/01/10 05:21:31;;;;;;;5.45;2.40;;;6.30;99.90;;;5.34;100.00;100870.22;4937588;29;20051;-81
2023/01/10 05:23:58;;;;;;;7.68;2.65;;;8.30;99.90;;;5.38;100.00;100890.25;4938484;28;20136;-82
2023/01/10 05:26:25;;;;;;;10.85;2.55;;;6.40;99.90;;;5.35;100.00;100882.41;4940432;28;20046;-81
2023/01/10 05:28:52;;;;;;;8.95;3.25;;;8.00;99.90;;;5.34;100.00;100886.72;4941200;23;20052;-77
2023/01/10 05:31:19;;;;;;;9.95;3.05;;;6.50;99.90;;;5.39;100.00;100881.53;4912094;29;20070;-77
2023/01/10 05:33:50;;;;;;;9.88;3.03;;;6.40;99.90;;;5.38;100.00;100896.31;4918528;29;20056;-76
2023/01/10 05:36:18;;;;;;;10.95;4.10;;;6.40;99.90;;;5.38;100.00;100895.47;4936179;29;20102;-80
2023/01/10 05:38:45;;;;;;;12.13;3.53;;;4.90;99.90;;;5.35;100.00;100896.31;4926579;29;20415;-76
2023/01/10 05:41:13;;;;;;;7.97;2.78;;;6.40;99.90;;;5.38;100.00;100900.69;4923651;29;20515;-77
2023/01/10 05:43:40;;;;;;;8.23;2.65;;;6.40;99.90;;;5.37;100.00;100910.22;4918487;29;20046;-76
2023/01/10 05:46:07;;;;;;;10.63;2.92;;;6.40;99.90;;;5.37;100.00;100906.75;4946973;28;20043;-76
2023/01/10 05:48:34;;;;;;;8.63;3.15;;;6.40;99.90;;;5.45;100.00;100907.66;4945021;28;20047;-77
2023/01/10 05:51:02;;;;;;;12.23;3.13;;;6.40;99.90;;;5.46;100.00;100900.72;4950750;28;20043;-76
2023/01/10 05:53:29;;;;;;;10.90;3.70;;;6.50;99.90;;;5.44;100.00;100905.06;4939404;28;20051;-76
2023/01/10 05:56:00;;;;;;;8.85;2.92;;;6.50;99.90;;;5.48;100.00;100920.75;4924281;29;20582;-76
2023/01/10 05:58:28;;;;;;;10.32;3.10;;;6.50;99.90;;;5.46;100.00;100925.06;4936692;28;20066;-77
2023/01/10 06:00:57;;;;;;;10.43;3.22;;;6.50;99.90;;;5.47;100.00;100925.97;4947638;29;20143;-77
2023/01/10 06:03:25;;;;;;;11.10;3.25;;;6.60;99.90;;;5.48;100.00;100928.59;4922165;29;20522;-77
2023/01/10 06:05:54;;;;;;;10.52;2.95;;;8.00;99.90;;;5.39;100.00;100949.41;4938835;29;20039;-77
2023/01/10 06:08:22;;;;;;;13.70;3.25;;;6.50;99.90;;;5.42;100.00;100940.72;4954535;28;20474;-76
2023/01/10 06:10:50;;;;;;;12.48;3.83;;;7.60;99.90;;;5.43;100.00;100947.69;4935567;29;20074;-77
2023/01/10 06:13:17;;;;;;;11.35;3.53;;;6.50;99.90;;;5.45;100.00;100957.25;4947511;28;20122;-77
2023/01/10 06:15:44;;;;;;;11.57;3.15;;;6.60;99.90;;;5.43;100.00;100945.94;4947574;28;20047;-78
2023/01/10 06:18:11;;;;;;;11.55;2.90;;;5.10;99.90;;;5.41;100.00;100954.63;4945964;28;20043;-78
2023/01/10 06:20:40;;;;;;;21.92;4.05;;;6.50;99.90;;;5.46;100.00;100963.38;4923964;28;20047;-78
2023/01/10 06:23:07;;;;;;;14.85;3.80;;;6.50;99.90;;;5.47;100.00;100965.09;4937501;29;20055;-78
2023/01/10 06:25:39;;;;;;;9.27;2.95;;;6.50;99.90;;;5.46;100.00;100971.19;4967112;28;20067;-77
2023/01/10 06:28:07;;;;;;;8.70;3.28;;;6.50;99.90;;;5.46;100.00;100984.25;4944082;29;20050;-77
2023/01/10 06:30:36;;;;;;;8.98;3.13;;;6.50;99.90;;;5.43;100.00;100989.44;4960937;28;20138;-77
2023/01/10 06:33:06;;;;;;;12.98;3.65;;;6.40;99.90;;;5.46;100.00;100989.47;4939285;29;20102;-77
2023/01/10 06:35:34;;;;;;;13.32;3.45;;;6.80;99.90;;;5.37;100.00;100998.97;4938731;29;20802;-77
2023/01/10 06:38:01;;;;;;;15.00;3.67;;;6.50;99.90;;;5.44;100.00;100991.19;4938547;29;20078;-77
2023/01/10 06:40:29;;;;;;;15.52;3.90;;;6.40;99.90;;;5.37;100.00;100998.09;4954300;28;20054;-77
2023/01/10 06:42:56;;;;;;;8.75;3.03;;;6.50;99.90;;;5.39;100.00;101004.19;4935028;29;20118;-78
2023/01/10 06:45:23;;;;;;;7.85;3.30;;;6.50;99.90;;;5.41;100.00;101018.13;4947458;28;20786;-77
2023/01/10 06:47:51;;;;;;;14.32;3.03;;;6.50;99.90;;;5.38;100.00;101025.94;4933712;29;20043;-78
2023/01/10 06:50:18;;;;;;;18.15;4.65;;;6.50;99.90;;;5.43;100.00;101032.06;4935523;28;20047;-77
2023/01/10 06:52:45;;;;;;;9.65;3.90;;;6.50;99.90;;;5.44;100.00;101043.41;4950932;28;20071;-77
2023/01/10 06:55:12;;;;;;;12.90;5.40;;;6.50;99.90;;;5.46;100.00;101066.00;4951242;28;20438;-77
2023/01/10 06:57:39;;;;;;;12.95;3.78;;;6.50;99.90;;;5.46;100.00;101052.09;4951429;29;20051;-77
2023/01/10 07:00:09;;;;;;;8.43;3.45;;;6.50;99.90;;;5.39;100.00;101052.06;4935440;29;20419;-77
2023/01/10 07:02:36;;;;;;;17.42;4.32;;;6.50;99.90;;;5.36;100.00;101043.31;4919334;29;20074;-77
2023/01/10 07:05:03;;;;;;;11.00;3.40;;;6.50;99.90;;;5.36;100.00;101038.97;4950920;29;20069;-77
2023/01/10 07:07:30;;;;;;;14.85;3.70;;;6.50;99.90;;;5.41;100.00;101033.78;4934879;29;20419;-78
2023/01/10 07:09:58;;;;;;;13.02;3.45;;;6.50;99.90;;;5.36;100.00;101038.97;4935049;29;20059;-77
2023/01/10 07:12:25;;;;;;;12.95;3.03;;;6.50;99.90;;;5.31;100.00;101038.06;4937448;28;20070;-78
2023/01/10 07:14:52;;;;;;;15.85;4.47;;;6.40;99.90;;;5.23;100.00;101047.56;4935290;29;20562;-77
2023/01/10 07:17:20;;;;;;;13.98;6.07;;;7.10;99.90;;;5.19;100.00;101064.94;4935158;29;20206;-76
2023/01/10 07:19:47;;;;;;;10.30;4.72;;;6.30;99.90;;;5.21;100.00;101067.53;4934361;29;20351;-77
2023/01/10 07:22:15;;;;;;;15.48;6.38;;;7.00;99.90;;;5.15;100.00;101088.34;4934887;29;20057;-76
2023/01/10 07:24:42;;;;;;;14.05;5.70;;;6.30;99.90;;;5.17;100.00;101082.31;4919006;29;20047;-77
2023/01/10 07:27:09;;;;;;;11.77;3.90;;;6.30;99.90;;;5.13;100.00;101083.13;4935135;29;20051;-76
2023/01/10 07:29:36;;;;;;;12.65;3.97;;;6.20;99.90;;;5.18;100.00;101096.22;4950701;29;20055;-77
2023/01/10 07:32:05;;;;;;;13.50;3.78;;;7.00;99.90;;;5.20;100.00;101108.41;4951987;28;20067;-76
2023/01/10 07:34:33;;;;;;;14.77;5.53;;;6.30;99.90;;;5.25;100.00;101119.78;4938395;29;20051;-76
2023/01/10 07:37:01;;;;;;;21.33;5.63;;;6.30;99.90;;;5.23;100.00;101118.03;4935836;29;20051;-76
2023/01/10 07:39:31;;;;;;;14.07;4.25;;;6.30;99.90;;;5.30;100.00;101112.00;4950029;29;20051;-77
2023/01/10 07:42:00;;;;;;;13.05;3.80;;;6.30;99.90;;;5.34;100.00;101115.50;4950235;29;20109;-76
2023/01/10 07:44:27;;;;;;;11.52;3.60;;;6.40;99.90;;;5.26;100.00;101115.44;4935186;29;20071;-76
2023/01/10 07:46:54;;;;;;;9.63;3.55;;;6.60;99.90;;;5.27;100.00;101124.13;4952986;29;20051;-76
2023/01/10 07:49:21;;;;;;;13.13;3.92;;;6.40;99.90;;;5.22;100.00;101127.56;4937092;29;20081;-77
2023/01/10 07:51:48;;;;;;;18.60;3.70;;;6.30;99.90;;;5.28;100.00;101118.94;4930164;29;20055;-76
2023/01/10 07:54:15;;;;;;;7.95;3.40;;;6.40;99.90;;;5.32;100.00;101125.94;4915316;29;20047;-76
2023/01/10 07:56:46;;;;;;;10.73;4.28;;;6.40;99.90;;;5.28;100.00;101125.88;4923237;29;20083;-78
2023/01/10 07:59:13;;;;;;;13.57;3.50;;;6.40;99.90;;;5.33;100.00;101132.91;4921957;28;20054;-74
2023/01/10 08:01:41;;;;;;;7.30;3.58;;;6.40;99.90;;;5.43;100.00;101130.38;4933497;28;20090;-77
2023/01/10 08:04:09;;;;;;;12.90;3.97;;;6.40;99.90;;;5.47;100.00;101126.94;4949830;28;20089;-77
2023/01/10 08:06:35;;;;;;;12.50;3.42;;;6.50;99.90;;;5.53;100.00;101133.09;4949587;29;20043;-78
2023/01/10 08:09:04;;;;;;;10.13;4.07;;;7.10;99.90;;;5.55;100.00;101138.34;4920844;29;20096;-80
2023/01/10 08:11:31;;;;;;;13.88;3.67;;;6.60;99.90;;;5.54;100.00;101134.84;4915966;29;20041;-78
2023/01/10 08:13:58;;;;;;;12.88;3.78;;;6.60;99.90;;;5.58;100.00;101140.97;4914777;29;20048;-78
2023/01/10 08:16:26;;;;;;;10.63;3.20;;;6.70;99.90;;;5.61;100.00;101133.16;4904124;29;20150;-78
2023/01/10 08:18:54;;;;;;;9.75;3.85;;;6.80;99.90;;;5.64;100.00;101135.78;4926160;29;20117;-78
2023/01/10 08:21:21;;;;;;;17.58;4.13;;;6.60;99.90;;;5.62;100.00;101142.75;4935233;29;20058;-80
2023/01/10 08:23:50;;;;;;;13.48;4.95;;;6.70;99.90;;;5.63;100.00;101136.66;4934161;29;20051;-78
2023/01/10 08:26:18;;;;;;;14.90;4.50;;;8.10;99.90;;;5.66;100.00;101139.28;4934308;29;20706;-79
2023/01/10 08:28:45;;;;;;;14.93;5.43;;;7.70;99.90;;;5.66;100.00;101139.28;4881114;29;20044;-78
2023/01/10 08:31:13;;;;;;;14.23;4.45;;;6.70;99.90;;;5.75;100.00;101153.28;4932772;29;20528;-78
2023/01/10 08:33:40;;;;;;;19.85;5.13;;;6.70;99.90;;;5.71;100.00;101148.91;4902470;29;20043;-77
2023/01/10 08:36:19;;;;;;;8.45;3.85;;;6.80;99.90;;;5.70;100.00;101149.75;4917084;29;20531;-78
2023/01/10 08:38:49;;;;;;;12.25;4.00;;;6.80;99.90;;;5.71;100.00;101147.16;4948790;29;20057;-79
2023/01/10 08:41:19;;;;;;;20.85;4.32;;;6.70;99.90;;;5.72;100.00;101154.13;4949936;29;20130;-73
2023/01/10 08:43:49;;;;;;;13.35;3.17;;;6.80;99.90;;;5.83;100.00;101151.59;4932225;29;20477;-71
2023/01/10 08:46:19;;;;;;;12.57;4.88;;;7.20;99.90;;;5.83;100.00;101162.06;4948466;29;20121;-71
2023/01/10 08:48:47;;;;;;;15.48;7.05;;;6.80;99.90;;;5.83;100.00;101159.44;4950429;28;20051;-72
2023/01/10 08:51:14;;;;;;;16.40;7.35;;;7.30;99.90;;;5.82;100.00;101169.03;4932339;29;20485;-71
2023/01/10 08:53:42;;;;;;;18.67;7.25;;;6.90;99.90;;;5.91;100.00;101168.22;4928793;29;20054;-71
2023/01/10 08:56:10;;;;;;;15.50;7.35;;;6.90;99.90;;;5.97;100.00;101170.88;4941473;29;20130;-71
2023/01/10 08:58:37;;;;;;;13.68;5.18;;;8.10;99.90;;;5.90;100.00;101179.53;4948532;29;20047;-71
2023/01/10 09:01:06;;;;;;;16.38;5.28;;;7.70;99.90;;;5.98;100.00;101174.38;4950231;28;20039;-73
2023/01/10 09:03:34;;;;;;;11.15;4.88;;;7.00;99.90;;;5.94;100.00;101180.44;4931289;29;20048;-72
2023/01/10 09:06:01;;;;;;;13.35;3.65;;;7.10;99.90;;;6.02;100.00;101191.84;4933867;29;20043;-70
2023/01/10 09:08:28;;;;;;;12.95;4.10;;;7.10;99.90;;;6.04;100.00;101187.50;4963518;28;20051;-71
2023/01/10 09:11:01;;;;;;;12.80;7.03;;;7.10;99.90;;;6.07;100.00;101186.66;4949690;29;20051;-71
2023/01/10 09:13:29;;;;;;;11.55;3.50;;;7.10;99.90;;;6.03;100.00;101184.91;4932772;29;20114;-69
2023/01/10 09:15:56;;;;;;;10.30;3.70;;;7.10;99.90;;;6.08;100.00;101184.06;4932558;29;20130;-70
2023/01/10 09:18:25;;;;;;;14.20;4.13;;;7.10;99.90;;;6.13;100.00;101188.47;4932907;29;20082;-70
2023/01/10 09:20:52;;;;;;;18.13;5.90;;;7.10;99.90;;;6.04;100.00;101191.88;4949001;29;20052;-71
2023/01/10 09:23:21;;;;;;;11.45;4.55;;;7.20;99.90;;;6.15;100.00;101186.72;4948407;29;20067;-71
2023/01/10 09:25:52;;;;;;;14.33;3.63;;;7.20;99.90;;;6.14;100.00;101193.69;4933167;29;20052;-71
2023/01/10 09:28:23;;;;;;;21.02;4.60;;;7.20;99.90;;;6.21;100.00;101203.34;4948831;29;20438;-71
2023/01/10 09:30:53;;;;;;;13.75;4.18;;;7.00;99.90;;;6.26;100.00;101200.75;4948489;29;20036;-71
2023/01/10 09:33:23;;;;;;;11.80;3.65;;;7.30;99.90;;;6.30;100.00;101215.59;4913858;29;20078;-70
2023/01/10 09:35:51;;;;;;;10.35;3.72;;;7.30;99.90;;;6.31;100.00;101217.34;4929270;29;20047;-71
2023/01/10 09:38:18;;;;;;;15.32;4.10;;;7.90;99.90;;;6.28;100.00;101222.56;4929344;29;20036;-71
2023/01/10 09:41:16;;;;;;;14.07;4.30;;;7.30;99.90;;;6.47;100.00;101227.91;4946602;28;20131;-71
2023/01/10 09:44:14;;;;;;;16.00;5.25;;;7.40;99.90;;;6.45;100.00;101224.41;4964465;28;20415;-71
2023/01/10 09:46:44;;;;;;;13.68;4.47;;;7.30;99.90;;;6.40;100.00;101237.44;4947860;28;20047;-71
2023/01/10 09:49:42;;;;;;;20.33;6.82;;;7.60;99.90;;;6.47;100.00;101235.75;4947932;29;20062;-71
2023/01/10 09:52:33;;;;;;;20.90;5.55;;;7.50;99.90;;;6.47;100.00;101227.91;4932375;29;20055;-71
2023/01/10 09:55:22;;;;;;;12.25;4.35;;;7.50;99.90;;;6.55;100.00;101231.44;4947649;29;20054;-71
2023/01/10 09:57:53;;;;;;;14.32;4.15;;;7.60;99.90;;;6.63;100.00;101241.94;4948228;29;20054;-71
2023/01/10 10:00:29;;;;;;;17.55;4.72;;;7.60;99.90;;;6.54;100.00;101253.22;4932517;29;20443;-72
2023/01/10 10:02:56;;;;;;;15.82;5.13;;;7.60;99.90;;;6.58;100.00;101241.94;4946494;29;20047;-71
2023/01/10 10:05:27;;;;;;;13.60;4.60;;;8.20;99.90;;;6.58;100.00;101235.81;4912748;29;20111;-71
2023/01/10 10:08:03;;;;;;;11.52;4.28;;;7.60;99.90;;;6.59;100.00;101250.63;4949721;28;20058;-71
2023/01/10 10:10:45;;;;;;;13.43;4.18;;;7.60;99.90;;;6.67;100.00;101228.91;4949249;29;20096;-71
2023/01/10 10:13:32;;;;;;;19.10;5.78;;;7.60;99.90;;;6.76;100.00;101232.44;4926011;29;20133;-69
2023/01/10 10:17:10;;;;;;;12.40;4.47;;;7.70;99.90;;;6.90;100.00;101229.88;4937270;29;20074;-68
2023/01/10 10:20:05;;;;;;;20.77;5.30;;;7.70;99.90;;;6.80;100.00;101244.66;4961115;28;20043;-72
2023/01/10 10:23:04;;;;;;;17.08;5.28;;;7.80;99.90;;;6.76;100.00;101238.53;4933946;29;20079;-71
2023/01/10 10:25:56;;;;;;;15.60;5.63;;;7.80;99.70;;;6.82;100.00;101232.47;4950371;29;20040;-69
2023/01/10 10:29:05;;;;;;;18.38;5.30;;;7.70;99.80;;;6.77;100.00;101226.34;4939642;29;20051;-69
2023/01/10 10:32:07;;;;;;;14.68;4.40;;;7.80;99.80;;;6.75;100.00;101231.56;4932881;28;20054;-71
2023/01/10 10:34:46;;;;;;;16.48;5.13;;;9.70;99.90;;;6.73;100.00;101235.06;4946805;28;20043;-71
2023/01/10 10:37:39;;;;;;;15.98;5.38;;;7.70;99.40;;;6.80;100.00;101239.44;4927081;28;20418;-70
2023/01/10 10:40:12;;;;;;;12.52;4.13;;;7.80;99.70;;;6.78;100.00;101235.94;4923490;29;20147;-71
2023/01/10 10:42:49;;;;;;;17.10;3.97;;;7.80;99.50;;;6.75;100.00;101231.56;4956395;28;20522;-71
2023/01/10 10:45:40;;;;;;;14.63;3.70;;;7.80;99.40;;;6.70;100.00;101229.78;4936133;29;20507;-71
2023/01/10 10:48:27;;;;;;;11.85;4.80;;;7.70;99.30;;;6.85;100.00;101226.38;4950762;29;20138;-71
2023/01/10 10:51:38;;;;;;;14.82;5.70;;;7.80;99.60;;;6.91;100.00;101229.03;4936195;29;20561;-77
2023/01/10 10:54:10;;;;;;;16.98;4.00;;;7.80;99.60;;;6.80;100.00;101216.78;4918795;29;20051;-79
2023/01/10 10:56:37;;;;;;;19.00;4.97;;;8.30;99.40;;;6.74;100.00;101228.94;4951155;29;20491;-76
2023/01/10 10:59:05;;;;;;;11.25;4.47;;;7.80;99.20;;;6.74;100.00;101229.81;4921758;28;20047;-78
2023/01/10 11:01:33;;;;;;;14.02;4.32;;;9.00;99.50;;;6.79;100.00;101229.84;4953306;29;20059;-78
2023/01/10 11:04:12;;;;;;;14.23;4.18;;;7.70;99.30;;;6.80;100.00;101228.97;4933290;29;20296;-75
2023/01/10 11:06:47;;;;;;;15.15;5.00;;;7.80;99.30;;;6.78;100.00;101238.56;4931479;29;20106;-75
2023/01/10 11:09:39;;;;;;;20.15;5.22;;;7.80;99.20;;;6.73;100.00;101243.75;4959754;29;20054;-75
2023/01/10 11:12:20;;;;;;;22.40;5.15;;;7.70;99.10;;;6.66;100.00;101228.91;4951629;29;20058;-75
2023/01/10 11:14:50;;;;;;;18.35;4.85;;;7.90;99.20;;;6.69;100.00;101231.53;4946461;29;20043;-74
2023/01/10 11:17:24;;;;;;;13.50;4.07;;;7.70;99.10;;;6.74;100.00;101221.09;4944548;29;20605;-75
2023/01/10 11:19:57;;;;;;;21.42;6.35;;;8.00;99.20;;;6.88;100.00;101222.06;4939384;29;20051;-75
2023/01/10 11:22:29;;;;;;;17.80;4.75;;;7.80;99.00;;;6.84;100.00;101224.63;4951310;29;20043;-74
2023/01/10 11:25:00;;;;;;;14.63;4.65;;;7.80;99.00;;;6.90;100.00;101224.66;4932098;29;20119;-75
2023/01/10 11:27:47;;;;;;;17.13;4.60;;;7.90;99.20;;;6.97;100.00;101220.34;4917592;29;20048;-75
2023/01/10 11:30:25;;;;;;;13.18;3.90;;;7.90;99.10;;;6.94;100.00;101222.06;4960927;23;20054;-79
2023/01/10 11:32:58;;;;;;;15.35;3.83;;;8.00;99.00;;;7.00;100.00;101221.22;4932438;29;20051;-80
2023/01/10 11:35:40;;;;;;;11.32;3.75;;;8.00;99.00;;;7.26;100.00;101224.81;4922488;29;20573;-80
2023/01/10 11:38:16;;;;;;;11.70;3.97;;;8.30;99.20;;;7.49;100.00;101238.88;4922229;29;20046;-79
2023/01/10 11:41:15;;;;;;;13.43;4.65;;;8.60;99.00;;;7.55;100.00;101216.19;4937161;29;20771;-80
2023/01/10 11:43:43;;;;;;;15.57;3.97;;;8.50;98.30;;;7.55;100.00;101218.78;4913017;29;20054;-79
2023/01/10 11:46:21;;;;;;;13.32;3.97;;;8.60;98.00;;;7.89;100.00;101222.34;4931302;29;20051;-80
2023/01/10 11:49:05;;;;;;;15.60;4.53;;;8.70;98.20;;;8.03;100.00;101217.09;4921372;29;20047;-78
2023/01/10 11:51:46;;;;;;;13.98;4.22;;;8.90;98.00;;;8.07;100.00;101216.22;4945917;29;20546;-81
2023/01/10 11:54:27;;;;;;;14.38;3.90;;;9.00;97.60;;;8.09;100.00;101208.38;4935982;29;20122;-79
2023/01/10 11:57:18;;;;;;;15.23;4.97;;;9.30;97.20;;;8.07;100.00;101213.59;4917357;29;20111;-80
2023/01/10 12:00:00;;;;;;;17.95;4.10;;;9.10;97.00;;;7.93;100.00;101208.38;4936206;29;20133;-80
2023/01/10 12:02:43;;;;;;;14.85;4.00;;;9.80;97.20;;;7.89;100.00;101201.38;4938792;29;20047;-80
2023/01/10 12:05:20;;;;;;;28.75;7.00;;;9.00;96.80;;;7.96;100.00;101212.75;4922197;29;20051;-79
2023/01/10 12:08:04;;;;;;;16.33;4.50;;;9.00;96.90;;;7.70;100.00;101190.00;4936714;29;20118;-79
2023/01/10 12:10:34;;;;;;;13.65;3.17;;;9.20;97.10;;;7.72;100.00;101197.84;4926877;29;20244;-81
2023/01/10 12:13:14;;;;;;;22.80;4.10;;;8.10;96.90;;;7.52;100.00;101180.38;4928832;29;20048;-80
2023/01/10 12:15:41;;;;;;;8.32;3.67;;;8.70;97.10;;;7.57;100.00;101203.94;4926484;29;20880;-80
2023/01/10 12:18:10;;;;;;;14.45;4.07;;;8.70;97.30;;;7.56;100.00;101189.97;4938809;29;20480;-80
2023/01/10 12:20:51;;;;;;;11.03;4.57;;;8.60;97.70;;;7.64;100.00;101184.75;4912258;29;20059;-79
2023/01/10 12:23:28;;;;;;;11.50;3.40;;;8.60;97.60;;;7.55;100.00;101203.09;4921251;29;20059;-78
2023/01/10 12:25:59;;;;;;;21.17;4.93;;;8.60;97.60;;;7.61;100.00;101187.38;4924417;29;20651;-81
2023/01/10 12:28:42;;;;;;;9.25;3.72;;;8.60;97.50;;;7.74;100.00;101183.03;4928078;28;20040;-80
2023/01/10 12:31:13;;;;;;;14.00;3.90;;;8.70;97.60;;;7.70;100.00;101178.63;4924886;29;20553;-80
2023/01/10 12:33:46;;;;;;;12.23;3.35;;;8.70;97.50;;;7.66;100.00;101180.41;4936860;29;20056;-81
2023/01/10 12:36:30;;;;;;;16.35;5.72;;;8.70;97.20;;;7.77;100.00;101186.50;4926710;29;20456;-79
2023/01/10 12:39:19;;;;;;;13.15;3.47;;;9.90;97.40;;;8.05;100.00;101178.66;4955728;28;20051;-80
2023/01/10 12:45:04;;;;;;;14.27;4.25;;;10.00;97.20;;;8.33;100.00;101173.38;4946200;29;20039;-80
2023/01/10 12:47:56;;;;;;;19.73;5.78;;;9.20;96.50;;;8.37;100.00;101171.63;4952885;28;20415;-78
2023/01/10 12:50:52;;;;;;;12.98;3.65;;;9.30;96.00;;;8.34;100.00;101167.25;4940699;29;20074;-74
2023/01/10 12:53:35;;;;;;;;;;;9.30;95.90;;;8.83;100.00;101170.66;4929934;28;20052;-79
2023/01/10 12:56:10;;;;;;;9.55;3.25;;;9.60;96.10;;;9.01;100.00;101159.22;4951336;28;19926;-83
2023/01/10 12:58:49;;;;;;;10.75;3.45;;;9.80;95.70;;;9.69;100.00;101160.56;4934267;28;20078;-81
2023/01/10 13:01:28;;;;;;;13.73;3.97;;;10.10;96.00;;;10.15;100.00;101161.03;4920723;29;20530;-75
2023/01/10 13:04:08;;;;;;;13.70;3.70;;;12.20;95.70;;;10.00;100.00;101148.91;4937177;29;20054;-75
2023/01/10 13:06:40;;;;;;;12.10;5.13;;;10.90;94.00;;;9.89;100.00;101163.00;4922647;29;20066;-75
2023/01/10 13:09:16;;;;;;;10.82;3.92;;;11.00;93.70;;;9.77;100.00;101160.50;4933742;29;20071;-74
2023/01/10 13:12:23;;;;;;;8.55;2.97;;;11.00;93.50;;;9.77;100.00;101153.47;4932985;29;20503;-74
2023/01/10 13:15:04;;;;;;;9.35;3.72;;;11.00;93.00;;;9.49;100.00;101158.06;4928109;29;20043;-74
2023/01/10 13:17:31;;;;;;;8.35;2.92;;;10.70;93.70;;;9.59;100.00;101145.72;4933068;29;20093;-75
2023/01/10 13:20:17;;;;;;;13.75;4.40;;;10.70;93.40;;;9.60;100.00;101148.34;4940458;29;20055;-74
2023/01/10 13:22:59;;;;;;;11.48;4.15;;;10.90;93.40;;;9.72;100.00;101154.38;4950047;28;20054;-73
2023/01/10 13:25:28;;;;;;;11.35;3.90;;;10.90;93.00;;;9.76;100.00;101145.59;4948737;29;20047;-74
2023/01/10 13:28:05;;;;;;;15.13;5.60;;;12.10;93.30;;;9.88;100.00;101137.59;4934583;29;20478;-74
2023/01/10 13:30:39;;;;;;;10.38;4.68;;;11.20;92.90;;;9.70;100.00;101137.75;4950037;29;20725;-74
2023/01/10 13:33:30;;;;;;;12.30;5.13;;;11.30;93.30;;;9.25;100.00;101140.72;4920735;29;20082;-77
2023/01/10 13:36:18;;;;;;;14.32;5.40;;;10.80;92.80;;;9.19;100.00;101138.97;4932595;29;20056;-78
2023/01/10 13:38:55;;;;;;;14.88;5.40;;;10.60;93.20;;;9.01;100.00;101135.59;4888241;29;20090;-79
2023/01/10 13:44:28;;;;;;;20.50;8.25;;;11.60;94.20;;;8.72;100.00;101148.81;4939517;29;20787;-79
2023/01/10 13:46:58;;;;;;;15.98;6.78;;;11.00;93.90;;;8.84;100.00;101138.28;4926297;29;20054;-79
2023/01/10 13:49:51;;;;;;;17.15;6.40;;;10.00;94.10;;;8.86;100.00;101147.00;4949381;28;20038;-77
2023/01/10 13:52:30;;;;;;;9.48;4.40;;;10.00;93.90;;;8.93;100.00;101140.88;4934957;29;20055;-78
2023/01/10 13:55:33;;;;;;;14.57;5.50;;;10.00;94.20;;;9.12;100.00;101139.88;4952017;28;20130;-78
2023/01/10 14:04:51;;;;;;;7.18;3.50;;;10.20;93.10;;;8.73;100.00;101147.94;4951683;29;20047;-78
2023/01/10 14:07:46;;;;;;;9.48;2.60;;;10.00;93.10;;;8.55;100.00;101141.03;4950123;29;20125;-78
2023/01/10 14:10:27;;;;;;;8.90;3.17;;;10.90;93.30;;;8.47;100.00;101139.25;4921262;29;20040;-77
2023/01/10 14:13:08;;;;;;;11.93;3.10;;;9.70;93.10;;;8.37;100.00;101145.41;4897707;29;20055;-78
2023/01/10 14:15:42;;;;;;;9.35;3.10;;;9.60;93.40;;;8.36;100.00;101143.66;4936396;29;20047;-77
2023/01/10 14:18:38;;;;;;;12.93;3.72;;;9.50;93.50;;;8.38;100.00;101129.66;4927129;29;20058;-77
2023/01/10 14:21:42;;;;;;;9.25;3.10;;;9.50;93.70;;;8.39;100.00;101125.31;4937017;29;20058;-79
2023/01/10 14:24:43;;;;;;;5.50;2.60;;;9.40;93.70;;;8.40;100.00;101107.81;4921966;29;20562;-76
2023/01/10 14:27:16;;;;;;;9.82;3.78;;;10.50;94.20;;;8.43;100.00;101105.16;4902833;29;20054;-81
2023/01/10 14:29:56;;;;;;;17.00;3.67;;;10.30;93.70;;;8.37;100.00;101106.09;4933937;29;20062;-76
2023/01/10 14:32:34;;;;;;;7.63;2.87;;;10.20;93.10;;;8.32;100.00;101100.84;4891528;29;20056;-79
2023/01/10 14:35:08;;;;;;;7.40;3.10;;;9.50;93.00;;;8.33;100.00;101101.69;4937401;29;20358;-78
2023/01/10 14:37:57;;;;;;;8.43;2.50;;;8.90;93.00;;;8.15;100.00;101090.38;4942450;29;20110;-78
2023/01/10 14:40:43;;;;;;;17.70;7.30;;;9.30;92.30;;;8.17;100.00;101108.75;4947253;29;20071;-75
2023/01/10 14:43:48;;;;;;;8.85;3.13;;;9.30;92.50;;;8.09;100.00;101077.31;4948924;29;20102;-77
2023/01/10 14:46:27;;;;;;;12.40;5.05;;;9.20;92.30;;;8.09;100.00;101075.53;4910665;29;20047;-78
2023/01/10 14:48:59;;;;;;;7.10;3.15;;;9.90;92.90;;;8.08;100.00;101084.28;4908019;29;20062;-79
2023/01/10 14:51:32;;;;;;;7.90;3.00;;;9.30;92.70;;;8.12;100.00;101079.91;4966898;28;20795;-78
2023/01/10 14:54:16;;;;;;;10.02;3.15;;;10.60;93.40;;;8.07;100.00;101077.31;4930539;29;20475;-78
2023/01/10 14:56:52;;;;;;;11.40;4.70;;;9.20;92.60;;;8.02;100.00;101078.19;4900384;29;20427;-79
2023/01/10 14:59:29;;;;;;;5.40;2.88;;;9.10;92.50;;;7.89;100.00;101072.09;4923104;29;20518;-78
2023/01/10 15:02:22;;;;;;;8.50;2.60;;;9.00;92.30;;;7.89;100.00;101067.75;4932890;29;20076;-79
2023/01/10 15:05:18;;;;;;;10.00;3.05;;;7.50;91.80;;;7.86;100.00;101074.72;4934931;29;20043;-78
2023/01/10 15:07:45;;;;;;;5.90;2.85;;;8.90;92.10;;;7.86;100.00;101069.50;4934925;29;20070;-79
2023/01/10 15:10:38;;;;;;;5.90;2.80;;;8.90;92.40;;;7.86;100.00;101075.59;4918574;29;20047;-78
2023/01/10 15:13:06;;;;;;;7.85;3.45;;;8.90;92.70;;;7.80;100.00;101063.41;4949271;29;20791;-78
2023/01/10 15:15:37;;;;;;;14.90;8.02;;;9.50;92.80;;;7.83;100.00;101069.50;4947223;29;20094;-79
2023/01/10 15:18:38;;;;;;;24.80;13.57;;;8.90;92.30;;;7.80;100.00;101063.41;4922948;29;20055;-78
2023/01/10 15:21:06;;;;;;;6.78;2.97;;;8.80;92.40;;;7.74;100.00;101066.00;4938119;29;20070;-78
2023/01/10 15:23:39;;;;;;;8.20;4.20;;;8.80;92.50;;;7.76;100.00;101068.63;4906678;29;20427;-78
2023/01/10 15:26:39;;;;;;;7.13;3.47;;;8.80;92.60;;;7.65;100.00;101063.41;4934238;29;20070;-78
2023/01/10 15:29:19;;;;;;;10.05;3.38;;;9.60;92.90;;;7.68;100.00;101063.41;4883566;29;20050;-79
2023/01/10 15:31:47;;;;;;;8.65;4.20;;;8.80;92.80;;;7.59;100.00;101068.63;4907607;29;20400;-78
2023/01/10 15:34:22;;;;;;;7.47;3.67;;;8.70;92.70;;;7.56;100.00;101056.41;4906487;29;20120;-78
2023/01/10 15:36:54;;;;;;;8.98;5.53;;;8.70;93.00;;;7.55;100.00;101064.28;4955197;29;20114;-78
2023/01/10 15:39:30;;;;;;;17.85;7.07;;;8.70;93.30;;;7.53;100.00;101059.03;4937872;29;20039;-78
2023/01/10 15:42:10;;;;;;;9.48;5.85;;;8.60;93.70;;;7.42;100.00;101045.94;4912378;29;20051;-79
2023/01/10 15:44:43;;;;;;;16.42;9.10;;;8.60;93.40;;;7.44;100.00;101048.56;4936755;29;20061;-78
2023/01/10 15:47:41;;;;;;;17.25;9.15;;;8.50;93.50;;;7.51;100.00;101047.69;4934586;29;20043;-79
2023/01/10 15:50:20;;;;;;;13.02;8.02;;;8.50;94.10;;;7.41;100.00;101043.31;4936373;29;20041;-78
2023/01/10 15:52:59;;;;;;;14.87;7.30;;;8.50;93.70;;;7.45;100.00;101042.47;4952971;29;20043;-79
2023/01/10 15:55:55;;;;;;;14.10;7.05;;;8.40;94.30;;;7.38;100.00;101034.59;4902902;29;20051;-78
2023/01/10 15:58:36;;;;;;;11.85;5.80;;;9.40;94.60;;;7.28;100.00;101024.13;4942800;29;20575;-78
2023/01/10 16:01:03;;;;;;;9.23;5.05;;;8.40;94.50;;;7.31;100.00;101025.00;4925829;29;20531;-78